createdAt,value
2022-11-27T00:01:53.797Z,5.30
2022-11-27T00:04:20.523Z,5.10
2022-11-27T00:06:47.194Z,5.10
2022-11-27T00:09:15.222Z,5.10
2022-11-27T00:11:42.244Z,5.10
2022-11-27T00:14:13.171Z,5.10
2022-11-27T00:16:39.839Z,5.10
2022-11-27T00:19:06.663Z,5.10
2022-11-27T00:21:34.649Z,5.10
2022-11-27T00:24:02.373Z,5.20
2022-11-27T00:26:34.470Z,5.10
2022-11-27T00:29:04.361Z,5.10
2022-11-27T00:31:32.162Z,5.30
2022-11-27T00:34:02.681Z,5.10
2022-11-27T00:36:30.867Z,5.10
2022-11-27T00:38:57.619Z,5.20
2022-11-27T00:41:25.292Z,5.10
2022-11-27T00:43:52.548Z,5.10
2022-11-27T00:46:25.276Z,5.00
2022-11-27T00:48:54.710Z,5.10
2022-11-27T00:51:22.200Z,5.10
2022-11-27T00:53:49.292Z,5.10
2022-11-27T00:56:17.807Z,5.10
2022-11-27T00:58:44.622Z,5.10
2022-11-27T01:01:19.428Z,5.10
2022-11-27T01:03:46.685Z,5.10
2022-11-27T01:06:14.364Z,5.10
2022-11-27T01:08:41.469Z,5.10
2022-11-27T01:11:08.197Z,5.10
2022-11-27T01:13:36.146Z,5.00
2022-11-27T01:16:07.276Z,5.00
2022-11-27T01:18:34.336Z,5.00
2022-11-27T01:21:01.267Z,4.90
2022-11-27T01:23:28.201Z,5.00
2022-11-27T01:25:54.975Z,5.00
2022-11-27T01:28:22.335Z,5.00
2022-11-27T01:30:49.116Z,5.00
2022-11-27T01:33:15.997Z,5.00
2022-11-27T01:35:42.643Z,5.00
2022-11-27T01:38:09.452Z,5.00
2022-11-27T01:40:36.129Z,5.00
2022-11-27T01:43:02.793Z,4.90
2022-11-27T01:45:29.492Z,4.90
2022-11-27T01:47:58.647Z,4.90
2022-11-27T01:50:27.272Z,4.90
2022-11-27T01:52:55.752Z,4.90
2022-11-27T01:55:33.902Z,4.90
2022-11-27T01:58:11.240Z,4.90
2022-11-27T02:00:38.502Z,4.90
2022-11-27T02:03:05.171Z,4.80
2022-11-27T02:05:33.398Z,4.80
2022-11-27T02:08:03.613Z,4.80
2022-11-27T02:10:48.776Z,4.80
2022-11-27T02:13:35.607Z,4.80
2022-11-27T02:16:21.258Z,4.80
2022-11-27T02:19:07.332Z,4.80
2022-11-27T02:21:33.977Z,4.80
2022-11-27T02:24:09.766Z,4.80
2022-11-27T02:26:59.186Z,4.70
2022-11-27T02:29:27.268Z,4.80
2022-11-27T02:31:58.347Z,4.70
2022-11-27T02:34:28.577Z,4.70
2022-11-27T02:37:14.115Z,4.80
2022-11-27T02:40:01.015Z,4.80
2022-11-27T02:42:29.051Z,4.80
2022-11-27T02:44:58.571Z,4.70
2022-11-27T02:47:26.595Z,4.60
2022-11-27T02:49:56.973Z,4.80
2022-11-27T02:52:25.855Z,4.70
2022-11-27T02:54:55.542Z,4.60
2022-11-27T02:57:23.895Z,4.70
2022-11-27T02:59:51.346Z,4.70
2022-11-27T03:02:22.369Z,4.60
2022-11-27T03:04:51.272Z,4.60
2022-11-27T03:07:22.894Z,4.60
2022-11-27T03:09:51.132Z,4.60
2022-11-27T03:12:18.301Z,4.50
2022-11-27T03:14:46.484Z,4.50
2022-11-27T03:17:13.132Z,4.50
2022-11-27T03:19:42.778Z,4.40
2022-11-27T03:22:09.502Z,4.40
2022-11-27T03:24:36.275Z,4.40
2022-11-27T03:27:03.661Z,4.40
2022-11-27T03:29:51.796Z,4.40
2022-11-27T03:32:18.506Z,4.40
2022-11-27T03:34:45.704Z,4.40
2022-11-27T03:37:12.356Z,4.50
2022-11-27T03:39:39.034Z,4.40
2022-11-27T03:42:18.896Z,4.40
2022-11-27T03:44:48.216Z,4.50
2022-11-27T03:47:14.888Z,4.50
2022-11-27T03:49:56.999Z,4.50
2022-11-27T03:52:32.443Z,4.50
2022-11-27T03:55:22.456Z,4.50
2022-11-27T03:58:22.035Z,4.50
2022-11-27T04:00:50.106Z,4.50
2022-11-27T04:03:22.764Z,4.50
2022-11-27T04:05:49.396Z,4.50
2022-11-27T04:08:16.107Z,4.50
2022-11-27T04:10:42.761Z,4.50
2022-11-27T04:13:09.402Z,4.50
2022-11-27T04:15:36.045Z,4.50
2022-11-27T04:18:02.722Z,4.50
2022-11-27T04:20:29.618Z,4.50
2022-11-27T04:22:56.432Z,4.50
2022-11-27T04:25:23.450Z,4.60
2022-11-27T04:27:50.095Z,4.70
2022-11-27T04:30:17.134Z,4.60
2022-11-27T04:32:43.812Z,4.60
2022-11-27T04:35:10.569Z,4.60
2022-11-27T04:37:37.216Z,4.50
2022-11-27T04:40:04.552Z,4.50
2022-11-27T04:42:31.201Z,4.60
2022-11-27T04:44:57.839Z,4.60
2022-11-27T04:47:24.508Z,4.50
2022-11-27T04:49:51.148Z,4.70
2022-11-27T04:52:17.795Z,4.50
2022-11-27T04:54:44.404Z,4.70
2022-11-27T04:57:11.040Z,4.60
2022-11-27T04:59:38.640Z,4.60
2022-11-27T05:02:05.247Z,4.60
2022-11-27T05:04:31.998Z,4.60
2022-11-27T05:06:58.669Z,4.60
2022-11-27T05:09:25.603Z,4.50
2022-11-27T05:11:52.194Z,4.60
2022-11-27T05:14:19.915Z,4.50
2022-11-27T05:16:53.900Z,4.50
2022-11-27T05:19:21.749Z,4.50
2022-11-27T05:21:49.103Z,4.50
2022-11-27T05:24:16.779Z,4.50
2022-11-27T05:26:43.747Z,4.50
2022-11-27T05:29:11.053Z,4.50
2022-11-27T05:31:38.129Z,4.40
2022-11-27T05:34:05.210Z,4.40
2022-11-27T05:36:32.460Z,4.40
2022-11-27T05:38:59.756Z,4.40
2022-11-27T05:41:26.538Z,4.30
2022-11-27T05:43:53.197Z,4.30
2022-11-27T05:46:21.402Z,4.40
2022-11-27T05:48:48.367Z,4.30
2022-11-27T05:51:15.434Z,4.20
2022-11-27T05:53:42.054Z,4.20
2022-11-27T05:56:10.060Z,4.20
2022-11-27T05:58:36.754Z,4.30
2022-11-27T06:01:03.786Z,4.30
2022-11-27T06:03:30.465Z,4.30
2022-11-27T06:05:57.353Z,4.30
2022-11-27T06:08:23.974Z,4.30
2022-11-27T06:10:50.659Z,4.30
2022-11-27T06:13:17.357Z,4.30
2022-11-27T06:15:43.959Z,4.30
2022-11-27T06:18:11.039Z,4.40
2022-11-27T06:20:43.406Z,4.30
2022-11-27T06:23:10.896Z,4.30
2022-11-27T06:25:37.533Z,4.30
2022-11-27T06:28:04.320Z,4.30
2022-11-27T06:30:30.989Z,4.30
2022-11-27T06:32:57.746Z,4.30
2022-11-27T06:35:24.436Z,4.30
2022-11-27T06:37:51.179Z,4.30
2022-11-27T06:40:17.980Z,4.40
2022-11-27T06:42:44.667Z,4.30
2022-11-27T06:45:11.467Z,4.40
2022-11-27T06:47:38.117Z,4.40
2022-11-27T06:50:05.296Z,4.40
2022-11-27T06:52:35.804Z,4.40
2022-11-27T06:55:05.508Z,4.40
2022-11-27T06:57:32.127Z,4.40
2022-11-27T06:59:58.816Z,4.40
2022-11-27T07:02:25.546Z,4.40
2022-11-27T07:04:52.258Z,4.40
2022-11-27T07:07:18.952Z,4.40
2022-11-27T07:09:45.627Z,4.50
2022-11-27T07:12:12.329Z,4.30
2022-11-27T07:14:39.297Z,4.30
2022-11-27T07:17:06.141Z,4.40
2022-11-27T07:19:32.791Z,4.30
2022-11-27T07:21:59.467Z,4.30
2022-11-27T07:24:26.105Z,4.30
2022-11-27T07:26:52.745Z,4.30
2022-11-27T07:29:19.366Z,4.50
2022-11-27T07:31:46.096Z,4.50
2022-11-27T07:34:17.098Z,4.40
2022-11-27T07:36:47.800Z,4.40
2022-11-27T07:39:14.454Z,4.50
2022-11-27T07:41:41.198Z,4.50
2022-11-27T07:44:09.182Z,4.60
2022-11-27T07:46:35.921Z,4.70
2022-11-27T07:49:03.868Z,4.80
2022-11-27T07:51:30.587Z,4.80
2022-11-27T07:53:59.520Z,4.90
2022-11-27T07:56:27.398Z,4.90
2022-11-27T07:58:54.118Z,5.00
2022-11-27T08:01:21.712Z,5.00
2022-11-27T08:03:48.502Z,5.10
2022-11-27T08:06:22.524Z,5.10
2022-11-27T08:08:49.608Z,5.10
2022-11-27T08:11:17.691Z,5.30
2022-11-27T08:13:44.336Z,5.10
2022-11-27T08:16:11.136Z,5.10
2022-11-27T08:18:37.853Z,5.10
2022-11-27T08:21:04.548Z,5.00
2022-11-27T08:23:31.153Z,5.10
2022-11-27T08:25:57.790Z,5.10
2022-11-27T08:28:24.487Z,5.20
2022-11-27T08:30:58.515Z,5.10
2022-11-27T08:33:25.391Z,5.20
2022-11-27T08:35:52.334Z,5.20
2022-11-27T08:38:19.213Z,5.30
2022-11-27T08:40:45.878Z,5.30
2022-11-27T08:43:12.561Z,5.40
2022-11-27T08:45:39.581Z,5.50
2022-11-27T08:48:06.476Z,5.70
2022-11-27T08:50:33.124Z,5.80
2022-11-27T08:52:59.766Z,6.00
2022-11-27T08:55:26.420Z,6.20
2022-11-27T08:57:53.072Z,6.40
2022-11-27T09:00:24.898Z,6.60
2022-11-27T09:02:54.385Z,6.80
2022-11-27T09:05:21.063Z,6.90
2022-11-27T09:07:47.763Z,7.00
2022-11-27T09:10:14.443Z,7.10
2022-11-27T09:12:43.593Z,7.10
2022-11-27T09:15:11.253Z,7.20
2022-11-27T09:17:38.063Z,7.30
2022-11-27T09:20:05.637Z,7.50
2022-11-27T09:22:33.432Z,7.70
2022-11-27T09:25:00.205Z,7.80
2022-11-27T09:27:27.313Z,8.00
2022-11-27T09:29:54.075Z,7.90
2022-11-27T09:32:22.090Z,7.80
2022-11-27T09:34:48.827Z,7.70
2022-11-27T09:37:15.522Z,7.60
2022-11-27T09:39:42.265Z,7.50
2022-11-27T09:42:15.280Z,7.40
2022-11-27T09:44:53.998Z,7.30
2022-11-27T09:47:41.768Z,7.30
2022-11-27T09:50:14.130Z,7.20
2022-11-27T09:52:52.273Z,7.20
2022-11-27T09:55:38.500Z,7.20
2022-11-27T09:58:11.238Z,7.20
2022-11-27T10:00:38.005Z,7.20
2022-11-27T10:03:08.270Z,7.20
2022-11-27T10:05:54.095Z,7.30
2022-11-27T10:08:20.929Z,7.20
2022-11-27T10:10:53.631Z,7.30
2022-11-27T10:13:29.436Z,7.20
2022-11-27T10:16:01.293Z,7.20
2022-11-27T10:18:31.003Z,7.20
2022-11-27T10:21:17.929Z,7.20
2022-11-27T10:23:59.882Z,7.30
2022-11-27T10:26:32.899Z,7.30
2022-11-27T10:29:09.465Z,7.30
2022-11-27T10:31:59.013Z,7.30
2022-11-27T10:34:38.681Z,7.40
2022-11-27T10:37:08.594Z,7.40
2022-11-27T10:39:41.288Z,7.50
2022-11-27T10:42:20.984Z,7.50
2022-11-27T10:44:50.433Z,7.60
2022-11-27T10:47:18.516Z,7.60
2022-11-27T10:49:46.957Z,7.70
2022-11-27T10:52:15.305Z,7.70
2022-11-27T10:54:42.898Z,7.80
2022-11-27T10:57:28.785Z,7.80
2022-11-27T11:00:06.572Z,7.90
2022-11-27T11:02:38.652Z,7.90
2022-11-27T11:05:37.679Z,7.90
2022-11-27T11:08:19.282Z,7.90
2022-11-27T11:11:05.903Z,8.00
2022-11-27T11:13:41.703Z,8.00
2022-11-27T11:16:14.672Z,8.10
2022-11-27T11:18:43.118Z,8.10
2022-11-27T11:21:15.533Z,8.20
2022-11-27T11:23:42.397Z,8.20
2022-11-27T11:26:21.600Z,8.20
2022-11-27T11:28:56.176Z,8.30
2022-11-27T11:31:27.865Z,8.40
2022-11-27T11:33:57.810Z,8.50
2022-11-27T11:36:24.546Z,8.50
2022-11-27T11:38:52.009Z,8.50
2022-11-27T11:41:18.900Z,8.50
2022-11-27T11:43:54.733Z,8.40
2022-11-27T11:46:23.802Z,8.40
2022-11-27T11:49:13.535Z,8.50
2022-11-27T11:51:40.180Z,8.50
2022-11-27T11:54:16.062Z,8.50
2022-11-27T11:56:44.943Z,8.50
2022-11-27T11:59:21.184Z,8.50
2022-11-27T12:02:00.224Z,8.50
2022-11-27T12:04:36.172Z,8.50
2022-11-27T12:07:15.138Z,8.50
2022-11-27T12:09:44.966Z,8.50
2022-11-27T12:12:26.952Z,8.60
2022-11-27T12:15:02.061Z,8.60
2022-11-27T12:17:31.699Z,8.70
2022-11-27T12:20:18.718Z,8.70
2022-11-27T12:23:00.987Z,8.70
2022-11-27T12:25:27.699Z,8.70
2022-11-27T12:28:13.338Z,8.70
2022-11-27T12:30:50.698Z,8.80
2022-11-27T12:33:29.187Z,8.80
2022-11-27T12:35:58.854Z,8.80
2022-11-27T12:38:44.423Z,8.80
2022-11-27T12:41:29.845Z,8.90
2022-11-27T12:44:00.304Z,8.90
2022-11-27T12:46:37.448Z,8.90
2022-11-27T12:49:14.163Z,8.90
2022-11-27T12:51:43.924Z,8.90
2022-11-27T12:54:36.913Z,8.90
2022-11-27T12:57:11.607Z,8.90
2022-11-27T12:59:43.529Z,8.90
2022-11-27T13:02:27.595Z,8.90
2022-11-27T13:05:00.224Z,8.90
2022-11-27T13:07:30.240Z,8.90
2022-11-27T13:10:00.749Z,9.00
2022-11-27T13:12:29.881Z,9.00
2022-11-27T13:15:00.253Z,9.00
2022-11-27T13:17:32.436Z,9.00
2022-11-27T13:19:59.975Z,9.00
2022-11-27T13:22:31.055Z,9.00
2022-11-27T13:25:00.681Z,9.00
2022-11-27T13:27:28.497Z,8.90
2022-11-27T13:29:56.822Z,8.90
2022-11-27T13:32:25.485Z,8.90
2022-11-27T13:34:53.265Z,8.90
2022-11-27T13:37:23.032Z,9.00
2022-11-27T13:39:49.768Z,8.90
2022-11-27T13:42:22.138Z,8.90
2022-11-27T13:44:59.558Z,9.00
2022-11-27T13:47:28.243Z,9.00
2022-11-27T13:50:03.078Z,9.00
2022-11-27T13:52:30.227Z,9.00
2022-11-27T13:54:58.299Z,9.00
2022-11-27T13:57:25.516Z,9.00
2022-11-27T13:59:57.662Z,9.00
2022-11-27T14:02:24.914Z,9.00
2022-11-27T14:04:56.079Z,9.00
2022-11-27T14:07:24.089Z,9.00
2022-11-27T14:09:56.265Z,8.90
2022-11-27T14:12:28.114Z,8.90
2022-11-27T14:18:10.734Z,8.90
2022-11-27T14:20:57.944Z,8.90
2022-11-27T14:23:36.688Z,8.90
2022-11-27T14:26:13.414Z,8.80
2022-11-27T14:28:43.813Z,8.80
2022-11-27T14:31:30.149Z,8.90
2022-11-27T14:36:44.860Z,8.80
2022-11-27T14:39:31.621Z,8.80
2022-11-27T14:42:02.028Z,8.80
2022-11-27T14:44:30.047Z,8.80
2022-11-27T14:47:00.416Z,8.70
2022-11-27T14:49:29.234Z,8.90
2022-11-27T14:52:04.321Z,8.80
2022-11-27T14:54:38.398Z,8.70
2022-11-27T14:57:06.894Z,8.60
2022-11-27T14:59:33.823Z,8.60
2022-11-27T15:02:22.247Z,8.80
2022-11-27T15:05:03.122Z,8.60
2022-11-27T15:07:31.572Z,8.60
2022-11-27T15:10:02.121Z,8.60
2022-11-27T15:12:35.935Z,8.60
2022-11-27T15:15:13.939Z,8.60
2022-11-27T15:17:44.163Z,8.60
2022-11-27T15:20:22.157Z,8.60
2022-11-27T15:22:51.589Z,8.50
2022-11-27T15:25:41.297Z,8.50
2022-11-27T15:28:34.979Z,8.50
2022-11-27T15:31:03.322Z,8.50
2022-11-27T15:33:34.240Z,8.50
2022-11-27T15:36:17.567Z,8.50
2022-11-27T15:38:50.814Z,8.50
2022-11-27T15:41:28.900Z,8.60
2022-11-27T15:43:56.729Z,8.50
2022-11-27T15:46:30.352Z,8.50
2022-11-27T15:48:57.676Z,8.50
2022-11-27T15:51:24.576Z,8.50
2022-11-27T15:53:51.551Z,8.50
2022-11-27T15:56:18.755Z,8.50
2022-11-27T15:58:45.723Z,8.50
2022-11-27T16:01:12.626Z,8.50
2022-11-27T16:03:40.515Z,8.50
2022-11-27T16:06:09.141Z,8.50
2022-11-27T16:08:36.675Z,8.40
2022-11-27T16:11:06.334Z,8.40
2022-11-27T16:13:33.740Z,8.40
2022-11-27T16:16:08.603Z,8.40
2022-11-27T16:18:35.733Z,8.40
2022-11-27T16:21:16.540Z,8.40
2022-11-27T16:23:43.604Z,8.40
2022-11-27T16:26:14.721Z,8.30
2022-11-27T16:28:41.722Z,8.30
2022-11-27T16:31:15.415Z,8.30
2022-11-27T16:33:42.774Z,8.30
2022-11-27T16:36:17.249Z,8.30
2022-11-27T16:38:45.133Z,8.30
2022-11-27T16:41:15.175Z,8.30
2022-11-27T16:43:45.275Z,8.30
2022-11-27T16:46:22.313Z,8.40
2022-11-27T16:48:50.426Z,8.30
2022-11-27T16:51:23.617Z,8.30
2022-11-27T16:53:53.070Z,8.30
2022-11-27T16:56:24.128Z,8.30
2022-11-27T16:58:51.714Z,8.30
2022-11-27T17:01:24.669Z,8.20
2022-11-27T17:03:51.912Z,8.30
2022-11-27T17:06:25.529Z,8.20
2022-11-27T17:08:55.127Z,8.20
2022-11-27T17:11:27.740Z,8.30
2022-11-27T17:13:57.715Z,8.30
2022-11-27T17:16:25.287Z,8.30
2022-11-27T17:18:52.328Z,8.30
2022-11-27T17:21:24.558Z,8.20
2022-11-27T17:23:54.041Z,8.30
2022-11-27T17:26:22.817Z,8.30
2022-11-27T17:28:49.877Z,8.20
2022-11-27T17:31:21.673Z,8.40
2022-11-27T17:33:49.173Z,8.30
2022-11-27T17:36:16.319Z,8.30
2022-11-27T17:38:43.064Z,8.30
2022-11-27T17:41:12.816Z,8.30
2022-11-27T17:43:40.372Z,8.30
2022-11-27T17:46:08.723Z,8.30
2022-11-27T17:48:36.235Z,8.30
2022-11-27T17:51:04.493Z,8.30
2022-11-27T17:53:32.723Z,8.30
2022-11-27T17:56:07.405Z,8.30
2022-11-27T17:58:37.785Z,8.30
2022-11-27T18:01:06.358Z,8.30
2022-11-27T18:03:33.885Z,8.30
2022-11-27T18:06:05.767Z,8.30
2022-11-27T18:08:32.794Z,8.30
2022-11-27T18:11:25.469Z,8.40
2022-11-27T18:13:52.499Z,8.40
2022-11-27T18:16:28.908Z,8.40
2022-11-27T18:19:02.545Z,8.40
2022-11-27T18:21:29.409Z,8.40
2022-11-27T18:29:31.011Z,8.40
2022-11-27T18:31:58.170Z,8.50
2022-11-27T18:34:25.009Z,8.40
2022-11-27T18:36:53.084Z,8.30
2022-11-27T18:39:28.081Z,8.30
2022-11-27T18:41:54.925Z,8.30
2022-11-27T18:44:22.014Z,8.20
2022-11-27T18:46:49.054Z,8.30
2022-11-27T18:49:16.155Z,8.30
2022-11-27T18:51:43.029Z,8.30
2022-11-27T18:54:12.884Z,8.30
2022-11-27T18:56:39.778Z,8.30
2022-11-27T18:59:07.089Z,8.30
2022-11-27T19:01:41.531Z,8.20
2022-11-27T19:04:10.877Z,8.30
2022-11-27T19:06:38.997Z,8.20
2022-11-27T19:09:06.333Z,8.10
2022-11-27T19:11:34.067Z,8.20
2022-11-27T19:14:01.465Z,8.20
2022-11-27T19:16:31.584Z,8.30
2022-11-27T19:18:59.522Z,8.20
2022-11-27T19:21:28.446Z,8.20
2022-11-27T19:23:56.529Z,8.20
2022-11-27T19:26:25.672Z,8.20
2022-11-27T19:28:54.494Z,8.20
2022-11-27T19:31:22.748Z,8.20
2022-11-27T19:33:58.858Z,8.20
2022-11-27T19:36:26.508Z,8.20
2022-11-27T19:38:55.606Z,8.10
2022-11-27T19:41:23.697Z,8.10
2022-11-27T19:43:50.730Z,8.10
2022-11-27T19:46:20.618Z,8.10
2022-11-27T19:48:48.301Z,8.10
2022-11-27T19:51:15.541Z,8.10
2022-11-27T19:53:43.172Z,8.10
2022-11-27T19:56:10.510Z,8.10
2022-11-27T19:58:37.788Z,8.10
2022-11-27T20:01:06.585Z,8.00
2022-11-27T20:03:33.421Z,8.10
2022-11-27T20:06:12.731Z,8.00
2022-11-27T20:08:43.410Z,8.00
2022-11-27T20:11:14.477Z,8.00
2022-11-27T20:13:41.323Z,8.00
2022-11-27T20:16:13.882Z,7.90
2022-11-27T20:18:41.515Z,7.90
2022-11-27T20:21:17.276Z,7.90
2022-11-27T20:23:45.689Z,7.90
2022-11-27T20:26:16.105Z,7.90
2022-11-27T20:28:43.008Z,7.90
2022-11-27T20:31:15.745Z,7.90
2022-11-27T20:33:42.770Z,7.90
2022-11-27T20:36:14.376Z,7.90
2022-11-27T20:38:41.652Z,7.90
2022-11-27T20:41:10.773Z,7.90
2022-11-27T20:43:37.964Z,7.90
2022-11-27T20:46:07.666Z,7.90
2022-11-27T20:48:37.767Z,7.80
2022-11-27T20:51:10.855Z,7.80
2022-11-27T20:53:37.955Z,7.80
2022-11-27T20:56:06.503Z,7.80
2022-11-27T20:58:35.209Z,7.80
2022-11-27T21:01:02.579Z,7.70
2022-11-27T21:03:30.318Z,7.70
2022-11-27T21:05:57.160Z,7.60
2022-11-27T21:08:24.038Z,7.50
2022-11-27T21:10:51.125Z,7.60
2022-11-27T21:13:18.162Z,7.60
2022-11-27T21:15:46.451Z,7.50
2022-11-27T21:18:13.828Z,7.50
2022-11-27T21:20:41.686Z,7.50
2022-11-27T21:23:08.716Z,7.50
2022-11-27T21:25:37.446Z,7.40
2022-11-27T21:28:04.388Z,7.40
2022-11-27T21:30:31.276Z,7.30
2022-11-27T21:32:58.243Z,7.30
2022-11-27T21:35:31.208Z,7.30
2022-11-27T21:37:58.441Z,7.20
2022-11-27T21:40:25.273Z,7.20
2022-11-27T21:42:52.828Z,7.30
2022-11-27T21:45:19.746Z,7.10
2022-11-27T21:47:47.509Z,7.10
2022-11-27T21:50:14.620Z,7.10
2022-11-27T21:52:41.423Z,7.00
2022-11-27T21:55:12.005Z,7.20
2022-11-27T21:57:40.229Z,7.00
2022-11-27T22:00:07.816Z,7.00
2022-11-27T22:02:34.969Z,6.90
2022-11-27T22:05:01.976Z,6.90
2022-11-27T22:07:28.861Z,6.90
2022-11-27T22:09:55.789Z,6.90
2022-11-27T22:12:22.650Z,6.90
2022-11-27T22:14:52.629Z,6.80
2022-11-27T22:17:19.635Z,6.80
2022-11-27T22:19:46.596Z,6.70
2022-11-27T22:22:13.631Z,6.80
2022-11-27T22:24:40.956Z,6.70
2022-11-27T22:27:08.068Z,6.70
2022-11-27T22:29:34.842Z,6.70
2022-11-27T22:32:01.722Z,6.70
2022-11-27T22:34:28.484Z,6.60
2022-11-27T22:36:56.082Z,6.70
2022-11-27T22:39:22.968Z,6.70
2022-11-27T22:41:50.078Z,6.70
2022-11-27T22:44:23.360Z,6.70
2022-11-27T22:46:50.208Z,6.70
2022-11-27T22:49:18.431Z,6.70
2022-11-27T22:51:46.374Z,6.70
2022-11-27T22:54:15.151Z,6.70
2022-11-27T22:56:42.058Z,6.60
2022-11-27T23:01:56.775Z,6.60
2022-11-27T23:04:23.607Z,6.70
2022-11-27T23:06:50.472Z,6.70
2022-11-27T23:09:18.872Z,6.60
2022-11-27T23:11:46.301Z,6.60
2022-11-27T23:14:13.243Z,6.60
2022-11-27T23:16:40.136Z,6.70
2022-11-27T23:19:07.069Z,6.70
2022-11-27T23:21:37.391Z,6.70
2022-11-27T23:24:10.378Z,6.80
2022-11-27T23:26:37.188Z,6.70
2022-11-27T23:29:04.252Z,6.70
2022-11-27T23:31:36.075Z,6.80
2022-11-27T23:34:07.617Z,6.80
2022-11-27T23:36:35.167Z,6.70
2022-11-27T23:39:03.907Z,6.80
2022-11-27T23:41:31.167Z,6.70
2022-11-27T23:43:58.321Z,6.70
2022-11-27T23:46:27.281Z,6.80
2022-11-27T23:48:55.979Z,6.80
2022-11-27T23:51:26.709Z,6.80
2022-11-27T23:53:54.059Z,6.90
2022-11-27T23:56:32.030Z,6.70
2022-11-27T23:58:59.726Z,6.80
